Oxford, Iowa
Current Conditions -  °F | °C
As of 12:52 PM on Thursday 27 Nov 2014 (Local Time) from KCID Reporting Station
Clear Clear  
Wind Chill: -1°   Ceiling: Unl
Heat Index: 15°   Visibility: 10mi
Dew Point:   Wind: 16mph
Humidity: 64%   Direction: 330°NNW
Pressure: 30.44"   Gusts: NA
Location:  41.72°N, 91.79°W
Report Text: KCID 271852Z 33014KT 10SM CLR M09/M15 A3044 RMK AO2 SLP323 T10941150
Loading
Personal Weather Stations






























Interactive Weather Map New forecast layout! Learn more

10-Day Weather Forecast

Advertisements
Track Severe Weather on mobile